Time;durP1;ratioP1;P1;durP2;ratioP2;P2;SDS_P1;SDS_P2;PMS_P1;PMS_P2;Temp;Humidity;BMP_temperature;BMP_pressure;BME280_temperature;BME280_humidity;BME280_pressure;Samples;Min_cycle;Max_cycle;Signal;HPM_P1;HPM_P2
2023/06/18 00:00:46;;;;;;;16.88;13.90;;;21.30;99.90;;;;;;5162617;28;20092;-70
2023/06/18 00:03:17;;;;;;;15.05;13.50;;;21.20;99.90;;;;;;5161631;28;20034;-70
2023/06/18 00:05:48;;;;;;;18.20;12.75;;;21.30;99.90;;;;;;5158390;28;20748;-70
2023/06/18 00:08:19;;;;;;;16.65;14.10;;;21.20;99.90;;;;;;5163472;28;20463;-70
2023/06/18 00:10:50;;;;;;;15.73;13.60;;;21.20;99.90;;;;;;5163897;28;20022;-69
2023/06/18 00:13:21;;;;;;;17.13;13.15;;;21.10;99.90;;;;;;5163815;28;20576;-70
2023/06/18 00:15:52;;;;;;;24.73;13.73;;;21.20;99.90;;;;;;5158314;28;20035;-72
2023/06/18 00:18:22;;;;;;;13.15;11.63;;;21.20;99.90;;;;;;5159684;28;20419;-71
2023/06/18 00:20:53;;;;;;;17.75;11.32;;;21.20;99.90;;;;;;5164568;28;20034;-70
2023/06/18 00:23:24;;;;;;;16.02;11.18;;;21.20;99.90;;;;;;5164289;28;20674;-69
2023/06/18 00:25:55;;;;;;;15.98;12.52;;;21.30;99.90;;;;;;5166189;28;20022;-69
2023/06/18 00:28:28;;;;;;;15.73;11.40;;;21.20;99.90;;;;;;5168770;28;20034;-69
2023/06/18 00:31:01;;;;;;;15.23;11.55;;;21.20;99.90;;;;;;5168470;28;20034;-70
2023/06/18 00:33:33;;;;;;;17.08;11.57;;;21.30;99.90;;;;;;5168675;28;20026;-69
2023/06/18 00:36:06;;;;;;;15.07;11.40;;;21.30;99.90;;;;;;5168411;28;20030;-70
2023/06/18 00:38:37;;;;;;;13.55;11.98;;;21.30;99.90;;;;;;5168601;28;20069;-69
2023/06/18 00:41:08;;;;;;;19.42;11.73;;;21.30;99.90;;;;;;5168378;28;20450;-69
2023/06/18 00:43:39;;;;;;;16.48;12.02;;;21.40;99.90;;;;;;5168353;28;20026;-69
2023/06/18 00:46:11;;;;;;;16.60;12.07;;;21.30;99.90;;;;;;5168457;28;20107;-69
2023/06/18 00:48:42;;;;;;;17.15;12.60;;;21.20;99.90;;;;;;5168450;28;20034;-70
2023/06/18 00:51:13;;;;;;;19.58;12.65;;;21.30;99.90;;;;;;5168513;28;20021;-70
2023/06/18 00:53:45;;;;;;;18.95;13.07;;;21.10;99.90;;;;;;5168594;28;20081;-69
2023/06/18 00:56:18;;;;;;;14.30;12.65;;;21.20;99.90;;;;;;5168147;28;20081;-69
2023/06/18 00:58:51;;;;;;;17.98;13.48;;;21.20;99.90;;;;;;5168367;28;20057;-69
2023/06/18 01:01:22;;;;;;;20.35;13.25;;;21.20;99.90;;;;;;5168060;28;20082;-71
2023/06/18 01:03:52;;;;;;;16.90;12.15;;;21.20;99.90;;;;;;5168166;28;20061;-69
2023/06/18 01:06:24;;;;;;;15.55;12.65;;;21.00;99.90;;;;;;5168040;28;20491;-69
2023/06/18 01:08:55;;;;;;;13.95;12.00;;;21.10;99.90;;;;;;5168071;28;20026;-69
2023/06/18 01:11:28;;;;;;;16.33;12.80;;;21.10;99.90;;;;;;5167947;28;20034;-69
2023/06/18 01:13:59;;;;;;;18.55;13.32;;;21.10;99.90;;;;;;5167578;28;20129;-69
2023/06/18 01:16:30;;;;;;;17.92;15.77;;;21.10;99.90;;;;;;5168012;28;20105;-69
2023/06/18 01:19:01;;;;;;;16.88;14.90;;;21.10;99.90;;;;;;5167805;28;20080;-69
2023/06/18 01:21:35;;;;;;;16.95;15.15;;;21.00;99.90;;;;;;5167678;28;20042;-69
2023/06/18 01:24:12;;;;;;;21.30;15.43;;;21.00;99.90;;;;;;5167748;28;20081;-69
2023/06/18 01:26:44;;;;;;;20.58;14.55;;;21.00;99.90;;;;;;5167708;28;20069;-70
2023/06/18 01:29:16;;;;;;;19.67;13.48;;;21.00;99.90;;;;;;5167593;28;20030;-69
2023/06/18 01:31:47;;;;;;;19.45;13.90;;;21.00;99.90;;;;;;5167598;28;20084;-69
2023/06/18 01:34:18;;;;;;;14.60;13.10;;;21.00;99.90;;;;;;5167493;28;20430;-70
2023/06/18 01:36:53;;;;;;;16.95;12.85;;;20.90;99.90;;;;;;5166649;28;20022;-69
2023/06/18 01:39:38;;;;;;;16.60;13.30;;;20.90;99.90;;;;;;5167220;28;20026;-69
2023/06/18 01:42:18;;;;;;;18.33;12.73;;;20.90;99.90;;;;;;5167232;28;20092;-69
2023/06/18 01:45:03;;;;;;;19.23;12.88;;;20.90;99.90;;;;;;5167221;28;20455;-72
2023/06/18 01:47:34;;;;;;;15.57;12.55;;;20.90;99.90;;;;;;5167190;28;20034;-70
2023/06/18 01:50:07;;;;;;;16.60;13.05;;;20.90;99.90;;;;;;5167335;28;20386;-69
2023/06/18 01:52:43;;;;;;;18.27;12.93;;;20.90;99.90;;;;;;5167062;28;20494;-70
2023/06/18 01:55:15;;;;;;;15.02;12.60;;;21.00;99.90;;;;;;5167156;28;20026;-69
2023/06/18 01:57:46;;;;;;;17.40;12.48;;;20.90;99.90;;;;;;5167243;28;20030;-69
2023/06/18 02:00:18;;;;;;;17.45;13.30;;;20.90;99.90;;;;;;5167053;28;20026;-70
2023/06/18 02:02:51;;;;;;;20.02;13.35;;;20.90;99.90;;;;;;5166997;28;20089;-69
2023/06/18 02:05:22;;;;;;;18.20;12.05;;;20.90;99.90;;;;;;5167321;28;20045;-70
2023/06/18 02:07:52;;;;;;;22.08;13.43;;;20.90;99.90;;;;;;5167095;28;20023;-70
2023/06/18 02:10:23;;;;;;;15.48;12.90;;;20.90;99.90;;;;;;5166952;28;20109;-70
2023/06/18 02:12:54;;;;;;;17.48;12.98;;;20.90;99.90;;;;;;5166525;28;20030;-70
2023/06/18 02:15:25;;;;;;;15.20;13.15;;;20.90;99.90;;;;;;5166973;28;20038;-69
2023/06/18 02:17:56;;;;;;;22.65;13.52;;;20.80;99.90;;;;;;5166854;28;20026;-71
2023/06/18 02:20:27;;;;;;;17.17;13.32;;;20.70;99.90;;;;;;5166566;28;20069;-69
2023/06/18 02:23:13;;;;;;;16.77;12.63;;;20.80;99.90;;;;;;5166480;28;20034;-70
2023/06/18 02:25:50;;;;;;;21.35;13.88;;;20.80;99.90;;;;;;5166629;28;20117;-70
2023/06/18 02:28:25;;;;;;;15.65;12.93;;;20.80;99.90;;;;;;5166704;28;20027;-70
2023/06/18 02:30:59;;;;;;;16.65;13.48;;;20.70;99.90;;;;;;5166543;28;20030;-70
2023/06/18 02:33:30;;;;;;;19.08;14.25;;;20.70;99.90;;;;;;5166438;28;20554;-69
2023/06/18 02:36:01;;;;;;;15.32;12.85;;;20.70;99.90;;;;;;5166305;28;20038;-69
2023/06/18 02:38:32;;;;;;;16.25;13.13;;;20.60;99.90;;;;;;5166292;28;20029;-69
2023/06/18 02:41:03;;;;;;;15.82;13.45;;;20.70;99.90;;;;;;5166111;28;20113;-69
2023/06/18 02:43:36;;;;;;;17.52;12.60;;;20.70;99.90;;;;;;5166031;28;20110;-70
2023/06/18 02:46:07;;;;;;;16.27;12.57;;;20.80;99.90;;;;;;5165979;28;20053;-70
2023/06/18 02:48:37;;;;;;;15.07;12.43;;;20.80;99.90;;;;;;5165761;28;20478;-69
2023/06/18 02:51:08;;;;;;;19.85;12.00;;;20.80;99.90;;;;;;5166003;28;20054;-69
2023/06/18 02:53:39;;;;;;;14.15;11.85;;;20.80;99.90;;;;;;5165941;28;20026;-69
2023/06/18 02:56:11;;;;;;;17.23;13.32;;;20.70;99.90;;;;;;5164630;28;20026;-69
2023/06/18 02:58:41;;;;;;;17.80;12.63;;;20.70;99.90;;;;;;5165887;28;20479;-70
2023/06/18 03:01:13;;;;;;;20.17;14.18;;;20.70;99.90;;;;;;5165646;28;20030;-69
2023/06/18 03:03:43;;;;;;;15.73;14.13;;;20.80;99.90;;;;;;5165686;28;20549;-69
2023/06/18 03:06:14;;;;;;;17.63;13.85;;;20.80;99.90;;;;;;5165737;28;20026;-69
2023/06/18 03:08:46;;;;;;;16.90;13.13;;;20.80;99.90;;;;;;5165686;28;20061;-69
2023/06/18 03:11:17;;;;;;;16.10;12.57;;;20.80;99.90;;;;;;5165802;28;20110;-69
2023/06/18 03:13:50;;;;;;;16.30;13.45;;;20.90;99.90;;;;;;5165468;28;20146;-69
2023/06/18 03:16:21;;;;;;;17.35;13.32;;;20.90;99.90;;;;;;5165586;28;20097;-69
2023/06/18 03:18:51;;;;;;;19.80;12.48;;;20.90;99.90;;;;;;5165847;28;20066;-69
2023/06/18 03:21:22;;;;;;;16.17;12.05;;;20.90;99.90;;;;;;5165432;28;20042;-69
2023/06/18 03:23:54;;;;;;;20.27;12.95;;;20.90;99.90;;;;;;5165664;28;20501;-70
2023/06/18 03:26:25;;;;;;;20.02;12.80;;;20.90;99.90;;;;;;5165408;28;20038;-69
2023/06/18 03:28:56;;;;;;;17.85;13.35;;;20.90;99.90;;;;;;5165535;28;20375;-69
2023/06/18 03:31:27;;;;;;;14.35;12.57;;;21.00;99.90;;;;;;5165467;28;20126;-69
2023/06/18 03:34:01;;;;;;;15.40;11.50;;;20.90;99.90;;;;;;5165457;28;20113;-69
2023/06/18 03:36:39;;;;;;;15.98;10.93;;;20.90;99.90;;;;;;5165231;28;20045;-69
2023/06/18 03:39:10;;;;;;;12.88;10.93;;;20.90;99.90;;;;;;5165363;28;20030;-69
2023/06/18 03:41:41;;;;;;;15.60;11.10;;;20.90;99.90;;;;;;5165171;28;20042;-69
2023/06/18 03:44:12;;;;;;;17.92;10.75;;;21.00;99.90;;;;;;5165072;28;20097;-69
2023/06/18 03:46:43;;;;;;;13.23;10.88;;;20.90;99.90;;;;;;5165157;28;20034;-71
2023/06/18 03:49:14;;;;;;;15.88;12.57;;;21.00;99.90;;;;;;5165134;28;20467;-69
2023/06/18 03:51:45;;;;;;;15.30;11.85;;;21.00;99.90;;;;;;5165056;28;20038;-71
2023/06/18 03:54:16;;;;;;;15.70;12.75;;;21.00;99.90;;;;;;5165055;28;20034;-70
2023/06/18 03:56:46;;;;;;;20.50;14.57;;;21.00;99.90;;;;;;5165032;28;20038;-69
2023/06/18 03:59:17;;;;;;;17.92;12.88;;;21.00;99.90;;;;;;5165107;28;20028;-69
2023/06/18 04:01:48;;;;;;;15.45;13.18;;;21.10;99.90;;;;;;5167811;28;20045;-69
2023/06/18 04:04:19;;;;;;;14.45;12.00;;;21.10;99.90;;;;;;5169153;28;20425;-69
2023/06/18 04:06:50;;;;;;;21.15;11.70;;;21.00;99.90;;;;;;5169086;28;20537;-69
2023/06/18 04:09:21;;;;;;;15.68;12.70;;;20.90;99.90;;;;;;5169035;28;20058;-69
2023/06/18 04:11:53;;;;;;;16.20;12.30;;;21.00;99.90;;;;;;5168930;28;20490;-69
2023/06/18 04:14:23;;;;;;;16.45;12.57;;;21.00;99.90;;;;;;5168552;28;20101;-69
2023/06/18 04:16:55;;;;;;;17.35;12.18;;;21.00;99.90;;;;;;5168982;28;20034;-69
2023/06/18 04:19:25;;;;;;;17.52;12.63;;;20.90;99.90;;;;;;5168877;28;20022;-69
2023/06/18 04:21:56;;;;;;;16.13;12.20;;;20.90;99.90;;;;;;5168910;28;20046;-69
2023/06/18 04:24:27;;;;;;;14.30;12.18;;;21.00;99.90;;;;;;5168816;28;20027;-69
2023/06/18 04:26:58;;;;;;;16.83;12.38;;;21.00;99.90;;;;;;5168838;28;20455;-69
2023/06/18 04:29:30;;;;;;;14.65;11.27;;;21.00;99.90;;;;;;5168964;28;20014;-69
2023/06/18 04:32:01;;;;;;;13.35;11.88;;;21.00;99.90;;;;;;5169097;28;20422;-69
2023/06/18 04:34:32;;;;;;;12.60;10.98;;;21.10;99.90;;;;;;5168771;28;20037;-70
2023/06/18 04:37:03;;;;;;;12.40;10.55;;;21.20;99.90;;;;;;5168708;28;20029;-70
2023/06/18 04:39:34;;;;;;;14.27;10.35;;;21.10;99.90;;;;;;5168714;28;20025;-69
2023/06/18 04:42:05;;;;;;;13.88;10.50;;;21.10;99.90;;;;;;5167037;28;20466;-69
2023/06/18 04:44:36;;;;;;;12.90;10.02;;;21.10;99.90;;;;;;5167472;28;20025;-69
2023/06/18 04:47:07;;;;;;;16.45;10.55;;;21.40;99.90;;;;;;5168489;28;20109;-69
2023/06/18 04:49:38;;;;;;;13.15;9.77;;;21.50;99.90;;;;;;5168440;28;20081;-69
2023/06/18 04:52:10;;;;;;;13.93;9.88;;;21.40;99.90;;;;;;5168453;28;20422;-69
2023/06/18 04:54:42;;;;;;;10.93;9.40;;;21.30;99.90;;;;;;5168191;28;20085;-69
2023/06/18 04:57:13;;;;;;;12.48;9.32;;;21.30;99.90;;;;;;5168419;28;20018;-70
2023/06/18 04:59:43;;;;;;;13.27;9.13;;;21.30;99.90;;;;;;5168148;28;20026;-72
2023/06/18 05:02:14;;;;;;;11.30;9.35;;;21.30;99.90;;;;;;5168016;28;20125;-69
2023/06/18 05:04:45;;;;;;;14.63;10.40;;;21.30;99.90;;;;;;5167982;28;20034;-69
2023/06/18 05:07:17;;;;;;;17.45;9.48;;;21.30;99.90;;;;;;5168116;28;20402;-69
2023/06/18 05:09:48;;;;;;;14.05;9.50;;;21.40;99.90;;;;;;5168097;28;20033;-69
2023/06/18 05:12:19;;;;;;;16.75;10.20;;;21.30;99.90;;;;;;5167511;28;20390;-69
2023/06/18 05:14:49;;;;;;;14.15;10.98;;;21.30;99.90;;;;;;5167647;28;20074;-69
2023/06/18 05:17:20;;;;;;;12.88;9.00;;;21.40;99.90;;;;;;5167904;28;20053;-69
2023/06/18 05:19:51;;;;;;;12.63;8.75;;;21.50;99.90;;;;;;5167840;28;20791;-69
2023/06/18 05:22:22;;;;;;;12.38;8.45;;;21.50;99.90;;;;;;5167735;28;20074;-69
2023/06/18 05:24:53;;;;;;;14.15;8.50;;;21.50;99.90;;;;;;5167662;28;20022;-69
2023/06/18 05:27:24;;;;;;;13.65;7.72;;;21.40;99.90;;;;;;5167602;28;20076;-69
2023/06/18 05:29:55;;;;;;;9.35;7.80;;;21.40;99.90;;;;;;5167608;28;20505;-69
2023/06/18 05:32:26;;;;;;;15.20;8.73;;;21.40;99.90;;;;;;5167672;28;20022;-70
2023/06/18 05:34:57;;;;;;;11.25;7.65;;;21.40;99.90;;;;;;5167580;28;20375;-69
2023/06/18 05:37:28;;;;;;;10.05;8.85;;;21.40;99.90;;;;;;5167644;28;20034;-69
2023/06/18 05:39:59;;;;;;;9.88;8.60;;;21.30;99.90;;;;;;5167838;28;20037;-69
2023/06/18 05:42:29;;;;;;;14.35;9.13;;;21.20;99.90;;;;;;5167218;28;20112;-69
2023/06/18 05:45:00;;;;;;;11.93;8.60;;;21.40;99.90;;;;;;5167551;28;20023;-69
2023/06/18 05:47:31;;;;;;;13.13;9.13;;;21.40;99.90;;;;;;5167340;28;20106;-69
2023/06/18 05:50:02;;;;;;;12.18;8.82;;;21.40;99.90;;;;;;5167423;28;20165;-69
2023/06/18 05:52:33;;;;;;;13.63;9.10;;;21.50;99.90;;;;;;5167228;28;20034;-69
2023/06/18 05:55:09;;;;;;;9.98;8.77;;;21.60;99.90;;;;;;5167118;28;20022;-71
2023/06/18 05:57:40;;;;;;;12.98;8.25;;;21.60;99.90;;;;;;5167094;28;20041;-69
2023/06/18 06:00:11;;;;;;;17.20;9.68;;;21.60;99.90;;;;;;5167092;28;20018;-72
2023/06/18 06:02:43;;;;;;;11.70;8.25;;;21.60;99.90;;;;;;5166846;28;20125;-70
2023/06/18 06:05:14;;;;;;;13.07;9.55;;;21.70;99.90;;;;;;5166966;28;20025;-71
2023/06/18 06:07:44;;;;;;;12.18;8.98;;;21.50;99.90;;;;;;5166841;28;20398;-69
2023/06/18 06:10:17;;;;;;;13.75;9.75;;;21.50;99.90;;;;;;5166951;28;20029;-69
2023/06/18 06:12:48;;;;;;;10.98;9.73;;;21.60;99.90;;;;;;5166375;28;20066;-70
2023/06/18 06:15:18;;;;;;;10.13;9.02;;;21.60;99.90;;;;;;5166754;28;20511;-70
2023/06/18 06:17:49;;;;;;;13.48;9.23;;;21.70;99.90;;;;;;5166640;28;20038;-70
2023/06/18 06:20:20;;;;;;;10.85;9.15;;;21.80;99.90;;;;;;5166739;28;20048;-70
2023/06/18 06:22:51;;;;;;;14.02;9.48;;;21.70;99.90;;;;;;5166048;28;20614;-69
2023/06/18 06:25:22;;;;;;;11.30;9.70;;;21.60;99.90;;;;;;5166337;28;20033;-69
2023/06/18 06:27:53;;;;;;;14.82;10.02;;;21.60;99.90;;;;;;5166452;28;20026;-69
2023/06/18 06:30:23;;;;;;;13.35;10.15;;;21.60;99.90;;;;;;5166410;28;20026;-69
2023/06/18 06:32:54;;;;;;;14.88;9.90;;;21.60;99.90;;;;;;5166291;28;20497;-69
2023/06/18 06:35:27;;;;;;;13.07;10.15;;;21.80;99.90;;;;;;5166217;28;20030;-70
2023/06/18 06:37:58;;;;;;;18.00;10.32;;;21.80;99.90;;;;;;5166216;28;20378;-69
2023/06/18 06:40:32;;;;;;;12.43;10.05;;;21.90;99.90;;;;;;5165149;28;20037;-72
2023/06/18 06:43:03;;;;;;;11.73;9.45;;;21.90;99.90;;;;;;5165875;28;20058;-70
2023/06/18 06:45:34;;;;;;;11.40;9.50;;;21.90;99.90;;;;;;5166105;28;20109;-69
2023/06/18 06:48:05;;;;;;;13.32;9.85;;;22.00;99.90;;;;;;5166026;28;20367;-69
2023/06/18 06:50:35;;;;;;;13.35;9.60;;;22.10;99.90;;;;;;5166275;28;20019;-69
2023/06/18 06:53:06;;;;;;;11.18;10.20;;;22.00;99.90;;;;;;5166303;28;20034;-69
2023/06/18 06:55:37;;;;;;;11.90;10.77;;;22.20;99.90;;;;;;5166246;28;20078;-69
2023/06/18 06:58:08;;;;;;;12.43;9.30;;;22.30;99.90;;;;;;5166221;28;20066;-69
2023/06/18 07:00:39;;;;;;;13.13;9.88;;;22.30;99.90;;;;;;5165932;28;20053;-69
2023/06/18 07:03:10;;;;;;;11.90;10.70;;;22.40;99.90;;;;;;5165872;28;20042;-69
2023/06/18 07:05:41;;;;;;;11.25;9.93;;;22.60;99.90;;;;;;5165811;28;20034;-69
2023/06/18 07:08:12;;;;;;;14.18;9.43;;;22.60;99.90;;;;;;5165855;28;20411;-69
2023/06/18 07:10:43;;;;;;;10.27;8.90;;;22.60;99.90;;;;;;5165724;28;20026;-70
2023/06/18 07:13:14;;;;;;;14.90;10.30;;;22.60;99.90;;;;;;5165316;28;20077;-69
2023/06/18 07:15:45;;;;;;;11.45;10.07;;;22.60;99.90;;;;;;5165512;28;20395;-69
2023/06/18 07:18:16;;;;;;;12.52;10.10;;;22.50;99.90;;;;;;5165574;28;20041;-69
2023/06/18 07:20:47;;;;;;;14.85;9.57;;;22.60;99.90;;;;;;5165481;28;20382;-69
2023/06/18 07:23:18;;;;;;;13.43;9.73;;;22.70;99.90;;;;;;5163241;28;20410;-72
2023/06/18 07:25:49;;;;;;;10.90;8.70;;;22.70;99.90;;;;;;5163889;28;20422;-70
2023/06/18 07:28:20;;;;;;;15.10;8.82;;;22.70;99.90;;;;;;5163918;28;20038;-69
2023/06/18 07:30:51;;;;;;;13.65;8.52;;;22.70;99.90;;;;;;5164925;28;20085;-69
2023/06/18 07:33:21;;;;;;;14.65;9.55;;;22.60;99.90;;;;;;5165640;28;20041;-69
2023/06/18 07:35:52;;;;;;;13.77;8.80;;;22.70;99.90;;;;;;5164488;28;20116;-69
2023/06/18 07:38:23;;;;;;;14.18;10.55;;;22.70;99.90;;;;;;5165160;28;20064;-69
2023/06/18 07:40:54;;;;;;;16.35;12.02;;;22.80;99.90;;;;;;5165151;28;20054;-69
2023/06/18 07:43:25;;;;;;;10.93;8.75;;;22.90;99.90;;;;;;5165054;28;20078;-70
2023/06/18 07:45:56;;;;;;;11.25;8.13;;;23.00;99.90;;;;;;5165061;28;20026;-70
2023/06/18 07:48:27;;;;;;;15.68;8.15;;;23.10;99.90;;;;;;5165150;28;20358;-69
2023/06/18 07:50:58;;;;;;;16.27;10.68;;;22.80;99.90;;;;;;5165082;28;20030;-69
2023/06/18 07:53:28;;;;;;;19.88;9.45;;;22.90;99.90;;;;;;5165005;28;20022;-69
2023/06/18 07:56:00;;;;;;;15.77;9.20;;;22.80;99.90;;;;;;5164994;28;20052;-69
2023/06/18 07:58:31;;;;;;;14.40;8.50;;;22.90;99.90;;;;;;5165056;28;20022;-69
2023/06/18 08:01:02;;;;;;;10.02;9.13;;;23.00;99.90;;;;;;5164987;28;20548;-70
2023/06/18 08:03:32;;;;;;;23.25;8.27;;;23.00;99.90;;;;;;5165250;28;20034;-70
2023/06/18 08:06:03;;;;;;;12.48;8.25;;;22.90;99.90;;;;;;5165155;28;20390;-69
2023/06/18 08:08:34;;;;;;;13.05;7.97;;;22.90;99.90;;;;;;5165184;28;20026;-69
2023/06/18 08:11:05;;;;;;;13.90;8.65;;;22.80;99.90;;;;;;5165180;28;20384;-69
2023/06/18 08:13:36;;;;;;;13.70;8.18;;;23.00;99.90;;;;;;5164716;28;20133;-69
2023/06/18 08:16:07;;;;;;;16.70;8.75;;;23.40;99.90;;;;;;5165002;28;20030;-70
2023/06/18 08:18:37;;;;;;;12.43;7.93;;;23.50;99.90;;;;;;5165107;28;20018;-69
2023/06/18 08:21:09;;;;;;;9.30;7.80;;;23.50;99.90;;;;;;5165011;28;20482;-69
2023/06/18 08:23:39;;;;;;;14.10;9.35;;;23.30;99.90;;;;;;5164842;28;20050;-69
2023/06/18 08:26:10;;;;;;;14.18;10.00;;;23.00;99.90;;;;;;5164944;28;20030;-69
2023/06/18 08:28:41;;;;;;;15.85;10.23;;;23.00;99.90;;;;;;5164870;28;20069;-69
2023/06/18 08:31:12;;;;;;;16.42;9.50;;;23.00;99.90;;;;;;5164723;28;20449;-69
2023/06/18 08:33:43;;;;;;;15.18;10.10;;;23.20;99.90;;;;;;5164746;28;20049;-69
2023/06/18 08:36:14;;;;;;;13.60;9.40;;;23.10;99.90;;;;;;5164700;28;20474;-70
2023/06/18 08:38:44;;;;;;;10.90;9.00;;;23.40;99.90;;;;;;5164780;28;20423;-72
2023/06/18 08:41:15;;;;;;;14.25;9.30;;;23.70;99.90;;;;;;5164653;28;20398;-69
2023/06/18 08:43:46;;;;;;;12.07;8.73;;;23.90;99.90;;;;;;5163404;28;20138;-70
2023/06/18 08:46:17;;;;;;;14.85;8.18;;;24.00;99.90;;;;;;5164924;28;20092;-69
2023/06/18 08:49:00;;;;;;;10.80;7.95;;;24.10;99.90;;;;;;5168431;28;20030;-70
2023/06/18 08:51:33;;;;;;;12.60;7.00;;;24.20;99.90;;;;;;5168268;28;20121;-69
2023/06/18 08:54:19;;;;;;;14.40;7.55;;;24.30;99.90;;;;;;5168303;28;20027;-70
2023/06/18 08:56:58;;;;;;;12.90;6.85;;;24.60;99.90;;;;;;5168294;28;20406;-70
2023/06/18 08:59:31;;;;;;;15.73;7.93;;;24.60;99.90;;;;;;5168245;28;20097;-69
2023/06/18 09:02:04;;;;;;;12.13;9.13;;;24.50;99.90;;;;;;5168165;28;20048;-69
2023/06/18 09:04:36;;;;;;;12.93;8.80;;;24.00;99.90;;;;;;5168140;28;20046;-70
2023/06/18 09:07:07;;;;;;;12.55;9.48;;;24.30;99.90;;;;;;5168020;28;20116;-70
2023/06/18 09:09:38;;;;;;;13.05;9.10;;;24.30;99.90;;;;;;5168061;28;20034;-69
2023/06/18 09:12:10;;;;;;;11.35;8.90;;;24.30;99.90;;;;;;5167935;28;20080;-70
2023/06/18 09:14:41;;;;;;;15.70;8.75;;;24.40;99.90;;;;;;5167724;28;20092;-69
2023/06/18 09:17:11;;;;;;;19.38;8.18;;;24.60;99.90;;;;;;5168049;28;20026;-69
2023/06/18 09:19:45;;;;;;;10.27;7.93;;;25.00;99.90;;;;;;5165429;28;20049;-72
2023/06/18 09:22:19;;;;;;;10.30;9.23;;;25.40;99.90;;;;;;5165963;28;20030;-72
2023/06/18 09:24:58;;;;;;;11.55;9.05;;;25.40;99.90;;;;;;5167413;28;20033;-70
2023/06/18 09:27:33;;;;;;;14.95;10.43;;;25.60;99.90;;;;;;5165598;28;20035;-69
2023/06/18 09:30:08;;;;;;;11.10;8.98;;;25.50;99.90;;;;;;5164779;28;20028;-70
2023/06/18 09:32:47;;;;;;;10.65;9.55;;;25.30;99.90;;;;;;5167626;28;20101;-69
2023/06/18 09:35:18;;;;;;;12.60;8.10;;;25.20;99.90;;;;;;5167597;28;20494;-70
2023/06/18 09:37:49;;;;;;;11.98;9.43;;;25.30;99.90;;;;;;5167644;28;20041;-69
2023/06/18 09:40:22;;;;;;;10.18;8.38;;;25.40;99.90;;;;;;5167347;28;20026;-69
2023/06/18 09:42:53;;;;;;;9.63;8.63;;;25.60;99.90;;;;;;5167161;28;20129;-69
2023/06/18 09:45:24;;;;;;;16.02;8.68;;;25.80;99.90;;;;;;5167581;28;20470;-70
2023/06/18 09:47:54;;;;;;;11.05;8.25;;;25.70;99.90;;;;;;5167394;28;20105;-69
2023/06/18 09:50:26;;;;;;;11.98;9.15;;;25.90;99.90;;;;;;5167246;28;20024;-69
2023/06/18 09:52:57;;;;;;;11.88;7.88;;;26.40;99.90;;;;;;5167219;28;20501;-69
2023/06/18 09:55:34;;;;;;;8.70;7.75;;;26.30;99.90;;;;;;5167118;28;20034;-69
2023/06/18 09:58:05;;;;;;;13.85;7.82;;;26.30;99.90;;;;;;5165374;28;20066;-69
2023/06/18 10:00:36;;;;;;;8.57;7.18;;;26.30;99.90;;;;;;5165855;28;20503;-69
2023/06/18 10:03:08;;;;;;;10.43;7.80;;;26.10;99.90;;;;;;5103041;28;20051;-70
2023/06/18 10:05:39;;;;;;;10.57;8.07;;;26.30;99.90;;;;;;5125548;29;20016;-72
2023/06/18 10:08:10;;;;;;;10.98;8.20;;;26.60;99.90;;;;;;5121678;28;20031;-70
2023/06/18 10:10:42;;;;;;;14.32;9.18;;;26.70;99.90;;;;;;5126323;28;20035;-72
2023/06/18 10:13:13;;;;;;;10.93;9.38;;;26.60;99.90;;;;;;5126325;28;20052;-69
2023/06/18 10:28:58;;;;;;;10.40;6.43;;;26.70;99.90;;;;;;5307673;27;20414;-70
2023/06/18 10:31:30;;;;;;;10.48;6.53;;;26.90;99.90;;;;;;5307637;27;20035;-70
2023/06/18 10:34:01;;;;;;;11.48;6.88;;;26.80;99.90;;;;;;5299487;28;20024;-70
2023/06/18 10:36:32;;;;;;;8.88;6.90;;;27.00;99.90;;;;;;5302408;27;20032;-70
2023/06/18 10:39:04;;;;;;;9.65;6.45;;;27.00;99.90;;;;;;5296751;28;20104;-71
2023/06/18 10:41:34;;;;;;;13.00;6.80;;;27.00;99.90;;;;;;5294027;28;20041;-70
2023/06/18 10:44:05;;;;;;;18.45;7.43;;;27.00;99.90;;;;;;5295256;28;20007;-71
2023/06/18 10:46:36;;;;;;;12.32;7.10;;;27.00;99.90;;;;;;5294167;28;20022;-70
2023/06/18 10:49:16;;;;;;;8.60;7.00;;;27.30;99.90;;;;;;5294653;28;20019;-71
2023/06/18 11:06:28;;;;;;;11.30;9.05;;;27.40;99.90;;;;;;5262204;27;20812;-69
2023/06/18 11:08:59;;;;;;;15.93;9.32;;;27.30;99.90;;;;;;5227682;28;20026;-68
2023/06/18 11:11:32;;;;;;;9.93;8.38;;;27.30;99.90;;;;;;5252315;28;20042;-69
2023/06/18 11:14:19;;;;;;;9.50;8.18;;;27.30;99.90;;;;;;5246108;28;20041;-70
2023/06/18 11:17:11;;;;;;;11.65;8.63;;;27.40;99.90;;;;;;5252853;28;20024;-70
2023/06/18 11:19:45;;;;;;;11.85;8.65;;;27.50;99.90;;;;;;5245896;28;20026;-70
2023/06/18 11:22:15;;;;;;;20.35;8.95;;;27.50;99.90;;;;;;5260148;28;20387;-68
2023/06/18 11:24:47;;;;;;;13.23;10.20;;;27.50;99.90;;;;;;5251270;27;20032;-68
2023/06/18 11:27:19;;;;;;;12.40;9.90;;;27.70;99.90;;;;;;5248213;28;20460;-68
2023/06/18 11:29:50;;;;;;;11.68;8.38;;;27.80;99.90;;;;;;5249700;27;20668;-70
2023/06/18 11:32:23;;;;;;;13.75;8.20;;;27.60;99.90;;;;;;5247674;28;20033;-70
2023/06/18 11:34:54;;;;;;;13.77;8.65;;;27.60;99.90;;;;;;5247991;27;20025;-69
2023/06/18 11:37:27;;;;;;;12.40;8.57;;;27.80;99.90;;;;;;5262599;27;20064;-71
2023/06/18 11:39:58;;;;;;;12.27;8.55;;;28.00;99.90;;;;;;5247999;27;20014;-70
2023/06/18 11:42:30;;;;;;;14.30;9.52;;;27.90;99.90;;;;;;5248976;27;20030;-71
2023/06/18 11:45:03;;;;;;;10.60;8.18;;;27.70;99.90;;;;;;5225302;28;20044;-70
2023/06/18 11:47:34;;;;;;;13.80;7.80;;;28.00;99.90;;;;;;5212119;28;20026;-71
2023/06/18 11:50:06;;;;;;;15.38;8.55;;;28.10;99.90;;;;;;5269498;28;20046;-71
2023/06/18 11:52:39;;;;;;;10.70;8.00;;;28.10;99.90;;;;;;5238838;27;20030;-71
2023/06/18 11:55:10;;;;;;;12.10;8.82;;;27.80;99.90;;;;;;5240582;27;20040;-69
2023/06/18 11:57:41;;;;;;;10.88;8.05;;;28.00;99.90;;;;;;5254743;28;20023;-69
2023/06/18 12:00:12;;;;;;;12.55;8.45;;;28.00;99.90;;;;;;5254660;28;20104;-69
2023/06/18 12:02:43;;;;;;;11.90;8.10;;;27.90;99.90;;;;;;5245780;27;20496;-68
2023/06/18 12:05:14;;;;;;;13.50;8.77;;;28.10;99.90;;;;;;5235353;27;20046;-68
2023/06/18 12:07:46;;;;;;;11.30;8.20;;;28.00;99.90;;;;;;5235517;28;20033;-71
2023/06/18 12:10:16;;;;;;;9.75;8.80;;;28.00;99.90;;;;;;5230624;28;20140;-71
2023/06/18 12:13:17;;;;;;;12.43;9.40;;;28.00;99.90;;;;;;5216824;28;20121;-69
2023/06/18 12:15:59;;;;;;;11.15;9.30;;;28.00;99.90;;;;;;5184460;28;20037;-68
2023/06/18 12:18:42;;;;;;;13.38;9.32;;;28.00;99.90;;;;;;5183610;28;20044;-68
2023/06/18 12:21:13;;;;;;;11.02;8.50;;;27.90;99.90;;;;;;5184765;28;20025;-68
2023/06/18 12:23:44;;;;;;;9.45;8.52;;;28.00;99.90;;;;;;5184379;28;20039;-68
2023/06/18 12:26:15;;;;;;;11.45;8.60;;;27.70;99.90;;;;;;5184447;28;20025;-68
2023/06/18 12:28:46;;;;;;;12.30;8.38;;;27.60;99.90;;;;;;5183943;28;20026;-71
2023/06/18 12:31:16;;;;;;;11.68;8.38;;;27.70;99.90;;;;;;5184497;28;20032;-68
2023/06/18 12:33:47;;;;;;;13.27;8.70;;;27.60;99.90;;;;;;5184184;28;20045;-69
2023/06/18 12:36:29;;;;;;;11.02;8.68;;;27.60;99.90;;;;;;5184418;28;20048;-68
2023/06/18 12:39:00;;;;;;;12.43;8.73;;;27.60;99.90;;;;;;5184537;28;20346;-68
2023/06/18 12:41:35;;;;;;;11.07;9.30;;;27.70;99.90;;;;;;5184426;28;20026;-68
2023/06/18 12:44:07;;;;;;;12.60;9.15;;;27.80;99.90;;;;;;5184287;28;20026;-68
2023/06/18 12:46:38;;;;;;;9.48;8.43;;;28.10;99.90;;;;;;5184453;28;20076;-68
2023/06/18 12:49:08;;;;;;;14.18;8.82;;;28.30;99.90;;;;;;5184655;28;20045;-69
2023/06/18 12:51:43;;;;;;;13.07;10.45;;;28.00;99.90;;;;;;5184258;28;20030;-68
2023/06/18 12:54:18;;;;;;;13.05;10.40;;;27.90;99.90;;;;;;5183960;28;20068;-68
2023/06/18 12:56:54;;;;;;;14.13;8.27;;;28.10;99.90;;;;;;5184250;28;20377;-67
2023/06/18 12:59:25;;;;;;;12.07;8.38;;;28.10;99.90;;;;;;5184215;28;20438;-71
2023/06/18 13:01:56;;;;;;;12.82;8.55;;;28.10;99.90;;;;;;5184028;28;20026;-69
2023/06/18 13:04:26;;;;;;;9.77;8.80;;;28.20;99.90;;;;;;5183724;28;20118;-68
2023/06/18 13:06:57;;;;;;;14.57;8.68;;;28.10;99.90;;;;;;5184100;28;20033;-70
2023/06/18 13:09:28;;;;;;;11.00;8.02;;;28.10;99.90;;;;;;5183938;28;20022;-68
2023/06/18 13:11:59;;;;;;;15.88;8.82;;;28.10;99.90;;;;;;5183865;28;20099;-71
2023/06/18 13:14:30;;;;;;;12.43;8.13;;;28.00;99.90;;;;;;5183853;28;20391;-68
2023/06/18 13:17:02;;;;;;;12.25;8.57;;;27.80;99.90;;;;;;5182669;28;20026;-68
2023/06/18 13:19:34;;;;;;;11.13;8.73;;;28.00;99.90;;;;;;5183118;28;20034;-70
2023/06/18 13:22:05;;;;;;;9.85;8.20;;;27.80;99.90;;;;;;5184001;28;20022;-67
2023/06/18 13:24:35;;;;;;;15.63;10.57;;;27.60;99.90;;;;;;5183212;28;20030;-67